Dati Storici

Data ora Umidita' aria (%) Temperatura aria (°C) Rad globale (W/m²) Gonioanemometro (°) Tacoanemometro (m/s) Pioggia (mm)
04-07-2012 12:00 57.3 % 29.031 888.427 161.063 5.049 0
04-07-2012 11:50 52.6 % 29.055 879.282 195.851 3.595 0
04-07-2012 11:40 54.4 % 29.239 870.624 224.509 2.126 0
04-07-2012 11:30 56.9 % 28.585 872.303 200.988 2.726 0
04-07-2012 11:20 58 % 28.963 875.748 151.791 2.777 0
04-07-2012 11:10 58.3 % 28.951 837.172 144.886 3.989 0
04-07-2012 11:00 58.3 % 28.739 825.036 210.461 3.81 0
04-07-2012 10:50 58.1 % 28.937 806.997 205.051 2.316 0
04-07-2012 10:40 58.8 % 28.954 782.63 212.12 2.298 0
04-07-2012 10:30 60.7 % 28.814 771.327 171.607 0.784 0
04-07-2012 10:20 64.7 % 28.252 769.977 47.706 1.777 0
04-07-2012 10:10 64.6 % 28.252 214.634 225.951 1.516 0
04-07-2012 09:30 61.7 % 28.258 603.877 132.949 1.176 2
04-07-2012 09:20 62.2 % 27.615 585.293 146.233 1.369 2
04-07-2012 09:10 61.6 % 27.938 534.69 201.592 0.857 2
04-07-2012 09:00 61.9 % 26.73 526.212 164.941 1.732 2
04-07-2012 08:50 62.8 % 26.13 496.59 582.848 1.112 2
04-07-2012 08:40 63.3 % 26.444 465.418 216.991 1.138 2
04-07-2012 08:30 64.9 % 25.642 440.831 91.335 1.409 2
04-07-2012 08:20 66.9 % 24.989 412.005 90.922 2.223 2

I dati sono presentati in modo automatico a scopo informativo. In seguito a verifica i dati possono subire modifiche o essere invalidati e non riportati negli archivi definitivi.